sensor_id;sensor_type;location;lat;lon;timestamp;pressure;altitude;pressure_sealevel;temperature
49567;BMP280;35472;50.514;30.448;2024-02-26T00:01:52;100388.03;;;6.44
49567;BMP280;35472;50.514;30.448;2024-02-26T00:04:18;100392.63;;;6.25
49567;BMP280;35472;50.514;30.448;2024-02-26T00:06:43;100395.16;;;6.37
49567;BMP280;35472;50.514;30.448;2024-02-26T00:09:09;100398.19;;;6.35
49567;BMP280;35472;50.514;30.448;2024-02-26T00:11:36;100389.81;;;6.37
49567;BMP280;35472;50.514;30.448;2024-02-26T00:14:03;100391.38;;;6.19
49567;BMP280;35472;50.514;30.448;2024-02-26T00:16:28;100380.44;;;6.24
49567;BMP280;35472;50.514;30.448;2024-02-26T00:18:53;100375.09;;;6.05
49567;BMP280;35472;50.514;30.448;2024-02-26T00:21:21;100383.06;;;5.82
49567;BMP280;35472;50.514;30.448;2024-02-26T00:23:46;100376.22;;;6.03
49567;BMP280;35472;50.514;30.448;2024-02-26T00:26:11;100378.72;;;5.93
49567;BMP280;35472;50.514;30.448;2024-02-26T00:28:37;100382.28;;;6.00
49567;BMP280;35472;50.514;30.448;2024-02-26T00:31:03;100395.13;;;5.95
49567;BMP280;35472;50.514;30.448;2024-02-26T00:33:28;100382.22;;;5.78
49567;BMP280;35472;50.514;30.448;2024-02-26T00:35:54;100389.72;;;5.91
49567;BMP280;35472;50.514;30.448;2024-02-26T00:38:19;100394.00;;;5.77
49567;BMP280;35472;50.514;30.448;2024-02-26T00:40:45;100382.28;;;5.81
49567;BMP280;35472;50.514;30.448;2024-02-26T00:43:11;100403.22;;;5.79
49567;BMP280;35472;50.514;30.448;2024-02-26T00:45:36;100397.31;;;5.89
49567;BMP280;35472;50.514;30.448;2024-02-26T00:48:01;100388.75;;;5.80
49567;BMP280;35472;50.514;30.448;2024-02-26T00:50:31;100384.78;;;5.93
49567;BMP280;35472;50.514;30.448;2024-02-26T00:52:56;100393.72;;;5.82
49567;BMP280;35472;50.514;30.448;2024-02-26T00:55:21;100386.09;;;5.80
49567;BMP280;35472;50.514;30.448;2024-02-26T00:57:47;100388.38;;;5.82
49567;BMP280;35472;50.514;30.448;2024-02-26T01:00:12;100375.31;;;5.96
49567;BMP280;35472;50.514;30.448;2024-02-26T01:02:38;100376.03;;;5.93
49567;BMP280;35472;50.514;30.448;2024-02-26T01:05:05;100383.06;;;5.82
49567;BMP280;35472;50.514;30.448;2024-02-26T01:07:31;100377.34;;;5.64
49567;BMP280;35472;50.514;30.448;2024-02-26T01:10:03;100373.44;;;5.96
49567;BMP280;35472;50.514;30.448;2024-02-26T01:12:29;100372.22;;;5.75
49567;BMP280;35472;50.514;30.448;2024-02-26T01:14:55;100374.78;;;5.68
49567;BMP280;35472;50.514;30.448;2024-02-26T01:17:20;100371.66;;;5.66
49567;BMP280;35472;50.514;30.448;2024-02-26T01:19:45;100367.38;;;5.61
49567;BMP280;35472;50.514;30.448;2024-02-26T01:22:13;100378.47;;;5.63
49567;BMP280;35472;50.514;30.448;2024-02-26T01:24:38;100376.19;;;5.46
49567;BMP280;35472;50.514;30.448;2024-02-26T01:27:04;100370.25;;;5.52
49567;BMP280;35472;50.514;30.448;2024-02-26T01:29:29;100378.75;;;5.58
49567;BMP280;35472;50.514;30.448;2024-02-26T01:31:55;100380.03;;;5.64
49567;BMP280;35472;50.514;30.448;2024-02-26T01:34:20;100370.28;;;5.72
49567;BMP280;35472;50.514;30.448;2024-02-26T01:36:46;100369.50;;;5.71
49567;BMP280;35472;50.514;30.448;2024-02-26T01:39:11;100378.53;;;5.47
49567;BMP280;35472;50.514;30.448;2024-02-26T01:41:38;100366.25;;;5.43
49567;BMP280;35472;50.514;30.448;2024-02-26T01:44:04;100364.22;;;5.36
49567;BMP280;35472;50.514;30.448;2024-02-26T01:46:31;100359.84;;;5.47
49567;BMP280;35472;50.514;30.448;2024-02-26T01:48:59;100343.19;;;5.35
49567;BMP280;35472;50.514;30.448;2024-02-26T01:51:25;100339.09;;;5.22
49567;BMP280;35472;50.514;30.448;2024-02-26T01:53:51;100343.53;;;5.33
49567;BMP280;35472;50.514;30.448;2024-02-26T01:56:18;100340.09;;;5.33
49567;BMP280;35472;50.514;30.448;2024-02-26T01:58:45;100338.41;;;5.44
49567;BMP280;35472;50.514;30.448;2024-02-26T02:01:10;100331.69;;;5.15
49567;BMP280;35472;50.514;30.448;2024-02-26T02:03:39;100344.59;;;5.29
49567;BMP280;35472;50.514;30.448;2024-02-26T02:06:04;100334.75;;;5.33
49567;BMP280;35472;50.514;30.448;2024-02-26T02:08:30;100332.88;;;5.33
49567;BMP280;35472;50.514;30.448;2024-02-26T02:10:56;100346.00;;;5.07
49567;BMP280;35472;50.514;30.448;2024-02-26T02:13:23;100334.97;;;5.24
49567;BMP280;35472;50.514;30.448;2024-02-26T02:15:49;100334.97;;;5.43
49567;BMP280;35472;50.514;30.448;2024-02-26T02:18:14;100341.94;;;5.48
49567;BMP280;35472;50.514;30.448;2024-02-26T02:20:39;100352.91;;;5.43
49567;BMP280;35472;50.514;30.448;2024-02-26T02:23:05;100347.91;;;5.41
49567;BMP280;35472;50.514;30.448;2024-02-26T02:25:30;100345.78;;;5.50
49567;BMP280;35472;50.514;30.448;2024-02-26T02:27:56;100341.31;;;5.35
49567;BMP280;35472;50.514;30.448;2024-02-26T02:30:25;100345.03;;;5.50
49567;BMP280;35472;50.514;30.448;2024-02-26T02:32:53;100341.22;;;5.32
49567;BMP280;35472;50.514;30.448;2024-02-26T02:35:18;100348.47;;;5.50
49567;BMP280;35472;50.514;30.448;2024-02-26T02:37:43;100349.81;;;5.41
49567;BMP280;35472;50.514;30.448;2024-02-26T02:40:09;100352.75;;;5.36
49567;BMP280;35472;50.514;30.448;2024-02-26T02:42:34;100354.97;;;5.34
49567;BMP280;35472;50.514;30.448;2024-02-26T02:45:00;100341.06;;;5.25
49567;BMP280;35472;50.514;30.448;2024-02-26T02:47:25;100341.06;;;5.25
49567;BMP280;35472;50.514;30.448;2024-02-26T02:49:51;100349.22;;;5.32
49567;BMP280;35472;50.514;30.448;2024-02-26T02:52:16;100345.16;;;5.38
49567;BMP280;35472;50.514;30.448;2024-02-26T02:54:41;100348.44;;;5.31
49567;BMP280;35472;50.514;30.448;2024-02-26T02:57:10;100351.13;;;5.50
49567;BMP280;35472;50.514;30.448;2024-02-26T02:59:36;100356.41;;;5.47
49567;BMP280;35472;50.514;30.448;2024-02-26T03:02:02;100351.22;;;5.19
49567;BMP280;35472;50.514;30.448;2024-02-26T03:04:27;100362.16;;;5.14
49567;BMP280;35472;50.514;30.448;2024-02-26T03:06:54;100362.84;;;5.46
49567;BMP280;35472;50.514;30.448;2024-02-26T03:09:20;100359.50;;;5.49
49567;BMP280;35472;50.514;30.448;2024-02-26T03:11:45;100360.31;;;5.34
49567;BMP280;35472;50.514;30.448;2024-02-26T03:14:10;100362.41;;;5.44
49567;BMP280;35472;50.514;30.448;2024-02-26T03:16:36;100356.59;;;5.57
49567;BMP280;35472;50.514;30.448;2024-02-26T03:19:01;100363.56;;;5.43
49567;BMP280;35472;50.514;30.448;2024-02-26T03:21:28;100359.47;;;5.30
49567;BMP280;35472;50.514;30.448;2024-02-26T03:23:54;100349.47;;;5.27
49567;BMP280;35472;50.514;30.448;2024-02-26T03:26:20;100346.94;;;5.15
49567;BMP280;35472;50.514;30.448;2024-02-26T03:28:47;100348.75;;;5.10
49567;BMP280;35472;50.514;30.448;2024-02-26T03:31:12;100345.41;;;4.98
49567;BMP280;35472;50.514;30.448;2024-02-26T03:33:38;100343.53;;;4.98
49567;BMP280;35472;50.514;30.448;2024-02-26T03:36:03;100349.44;;;5.07
49567;BMP280;35472;50.514;30.448;2024-02-26T03:38:29;100338.41;;;5.09
49567;BMP280;35472;50.514;30.448;2024-02-26T03:40:55;100343.34;;;4.91
49567;BMP280;35472;50.514;30.448;2024-02-26T03:43:25;100343.09;;;4.96
49567;BMP280;35472;50.514;30.448;2024-02-26T03:45:50;100337.31;;;4.94
49567;BMP280;35472;50.514;30.448;2024-02-26T03:48:15;100345.16;;;5.03
49567;BMP280;35472;50.514;30.448;2024-02-26T03:50:41;100337.94;;;4.88
49567;BMP280;35472;50.514;30.448;2024-02-26T03:53:06;100342.94;;;4.89
49567;BMP280;35472;50.514;30.448;2024-02-26T03:55:34;100342.50;;;4.87
49567;BMP280;35472;50.514;30.448;2024-02-26T03:58:00;100343.72;;;5.05
49567;BMP280;35472;50.514;30.448;2024-02-26T04:00:28;100334.31;;;4.96
49567;BMP280;35472;50.514;30.448;2024-02-26T04:02:57;100334.25;;;4.92
49567;BMP280;35472;50.514;30.448;2024-02-26T04:05:22;100326.19;;;5.08
49567;BMP280;35472;50.514;30.448;2024-02-26T04:07:48;100333.31;;;5.20
49567;BMP280;35472;50.514;30.448;2024-02-26T04:10:13;100338.59;;;5.16
49567;BMP280;35472;50.514;30.448;2024-02-26T04:12:39;100333.88;;;4.94
49567;BMP280;35472;50.514;30.448;2024-02-26T04:15:09;100329.72;;;5.12
49567;BMP280;35472;50.514;30.448;2024-02-26T04:17:36;100340.94;;;5.02
49567;BMP280;35472;50.514;30.448;2024-02-26T04:20:02;100346.88;;;5.11
49567;BMP280;35472;50.514;30.448;2024-02-26T04:22:28;100342.06;;;5.01
49567;BMP280;35472;50.514;30.448;2024-02-26T04:24:54;100348.56;;;5.19
49567;BMP280;35472;50.514;30.448;2024-02-26T04:27:19;100338.53;;;4.97
49567;BMP280;35472;50.514;30.448;2024-02-26T04:29:44;100357.06;;;5.05
49567;BMP280;35472;50.514;30.448;2024-02-26T04:32:10;100348.16;;;5.17
49567;BMP280;35472;50.514;30.448;2024-02-26T04:34:35;100346.09;;;4.95
49567;BMP280;35472;50.514;30.448;2024-02-26T04:37:01;100355.72;;;4.99
49567;BMP280;35472;50.514;30.448;2024-02-26T04:39:26;100351.88;;;4.97
49567;BMP280;35472;50.514;30.448;2024-02-26T04:41:51;100354.72;;;5.04
49567;BMP280;35472;50.514;30.448;2024-02-26T04:44:17;100349.19;;;4.97
49567;BMP280;35472;50.514;30.448;2024-02-26T04:46:42;100346.03;;;4.91
49567;BMP280;35472;50.514;30.448;2024-02-26T04:49:07;100351.78;;;4.93
49567;BMP280;35472;50.514;30.448;2024-02-26T04:51:33;100350.84;;;5.01
49567;BMP280;35472;50.514;30.448;2024-02-26T04:53:58;100354.38;;;4.90
49567;BMP280;35472;50.514;30.448;2024-02-26T04:56:25;100345.63;;;4.89
49567;BMP280;35472;50.514;30.448;2024-02-26T04:58:51;100340.00;;;4.94
49567;BMP280;35472;50.514;30.448;2024-02-26T05:01:16;100351.31;;;4.72
49567;BMP280;35472;50.514;30.448;2024-02-26T05:03:42;100344.25;;;4.80
49567;BMP280;35472;50.514;30.448;2024-02-26T05:06:08;100349.28;;;5.00
49567;BMP280;35472;50.514;30.448;2024-02-26T05:08:34;100340.44;;;4.96
49567;BMP280;35472;50.514;30.448;2024-02-26T05:11:01;100345.28;;;4.91
49567;BMP280;35472;50.514;30.448;2024-02-26T05:13:28;100351.34;;;4.76
49567;BMP280;35472;50.514;30.448;2024-02-26T05:15:54;100352.81;;;4.73
49567;BMP280;35472;50.514;30.448;2024-02-26T05:18:19;100351.53;;;4.98
49567;BMP280;35472;50.514;30.448;2024-02-26T05:20:44;100356.19;;;4.70
49567;BMP280;35472;50.514;30.448;2024-02-26T05:23:10;100357.56;;;4.64
49567;BMP280;35472;50.514;30.448;2024-02-26T05:25:35;100356.97;;;4.55
49567;BMP280;35472;50.514;30.448;2024-02-26T05:28:01;100348.47;;;4.49
49567;BMP280;35472;50.514;30.448;2024-02-26T05:30:26;100378.00;;;4.76
49567;BMP280;35472;50.514;30.448;2024-02-26T05:32:54;100381.66;;;4.68
49567;BMP280;35472;50.514;30.448;2024-02-26T05:35:20;100370.31;;;4.71
49567;BMP280;35472;50.514;30.448;2024-02-26T05:37:45;100379.13;;;4.75
49567;BMP280;35472;50.514;30.448;2024-02-26T05:40:11;100385.09;;;4.68
49567;BMP280;35472;50.514;30.448;2024-02-26T05:42:36;100392.81;;;4.89
49567;BMP280;35472;50.514;30.448;2024-02-26T05:45:02;100387.16;;;4.90
49567;BMP280;35472;50.514;30.448;2024-02-26T05:47:34;100399.00;;;5.08
49567;BMP280;35472;50.514;30.448;2024-02-26T05:49:59;100397.19;;;4.81
49567;BMP280;35472;50.514;30.448;2024-02-26T05:52:28;100404.34;;;4.77
49567;BMP280;35472;50.514;30.448;2024-02-26T05:54:57;100411.84;;;5.03
49567;BMP280;35472;50.514;30.448;2024-02-26T05:57:23;100407.84;;;4.81
49567;BMP280;35472;50.514;30.448;2024-02-26T05:59:48;100396.34;;;4.77
49567;BMP280;35472;50.514;30.448;2024-02-26T06:02:13;100407.09;;;4.96
49567;BMP280;35472;50.514;30.448;2024-02-26T06:04:39;100415.53;;;4.83
49567;BMP280;35472;50.514;30.448;2024-02-26T06:07:04;100415.63;;;5.18
49567;BMP280;35472;50.514;30.448;2024-02-26T06:09:30;100410.63;;;5.00
49567;BMP280;35472;50.514;30.448;2024-02-26T06:11:55;100406.16;;;5.04
49567;BMP280;35472;50.514;30.448;2024-02-26T06:14:23;100406.50;;;4.87
49567;BMP280;35472;50.514;30.448;2024-02-26T06:16:48;100402.38;;;4.90
49567;BMP280;35472;50.514;30.448;2024-02-26T06:19:14;100399.75;;;4.93
49567;BMP280;35472;50.514;30.448;2024-02-26T06:21:40;100396.34;;;4.93
49567;BMP280;35472;50.514;30.448;2024-02-26T06:24:05;100383.03;;;4.93
49567;BMP280;35472;50.514;30.448;2024-02-26T06:26:30;100373.53;;;5.11
49567;BMP280;35472;50.514;30.448;2024-02-26T06:28:58;100382.22;;;5.24
49567;BMP280;35472;50.514;30.448;2024-02-26T06:31:23;100390.56;;;5.22
49567;BMP280;35472;50.514;30.448;2024-02-26T06:33:49;100388.72;;;5.26
49567;BMP280;35472;50.514;30.448;2024-02-26T06:36:17;100394.03;;;5.07
49567;BMP280;35472;50.514;30.448;2024-02-26T06:38:43;100393.50;;;5.17
49567;BMP280;35472;50.514;30.448;2024-02-26T06:41:08;100390.44;;;5.34
49567;BMP280;35472;50.514;30.448;2024-02-26T06:43:34;100390.16;;;5.04
49567;BMP280;35472;50.514;30.448;2024-02-26T06:45:59;100387.31;;;4.97
49567;BMP280;35472;50.514;30.448;2024-02-26T06:48:25;100383.50;;;5.30
49567;BMP280;35472;50.514;30.448;2024-02-26T06:50:50;100390.56;;;5.22
49567;BMP280;35472;50.514;30.448;2024-02-26T06:53:16;100380.22;;;5.36
49567;BMP280;35472;50.514;30.448;2024-02-26T06:55:42;100389.47;;;5.42
49567;BMP280;35472;50.514;30.448;2024-02-26T06:58:08;100383.97;;;5.70
49567;BMP280;35472;50.514;30.448;2024-02-26T07:00:34;100375.66;;;6.14
49567;BMP280;35472;50.514;30.448;2024-02-26T07:03:00;100382.03;;;7.00
49567;BMP280;35472;50.514;30.448;2024-02-26T07:05:26;100375.91;;;7.26
49567;BMP280;35472;50.514;30.448;2024-02-26T07:07:52;100391.56;;;7.54
49567;BMP280;35472;50.514;30.448;2024-02-26T07:10:18;100378.91;;;8.65
49567;BMP280;35472;50.514;30.448;2024-02-26T07:12:43;100384.59;;;9.18
49567;BMP280;35472;50.514;30.448;2024-02-26T07:15:09;100382.06;;;8.81
49567;BMP280;35472;50.514;30.448;2024-02-26T07:17:35;100378.25;;;9.58
49567;BMP280;35472;50.514;30.448;2024-02-26T07:20:01;100380.31;;;10.21
49567;BMP280;35472;50.514;30.448;2024-02-26T07:22:29;100386.47;;;10.28
49567;BMP280;35472;50.514;30.448;2024-02-26T07:24:55;100391.38;;;9.98
49567;BMP280;35472;50.514;30.448;2024-02-26T07:27:20;100392.53;;;9.87
49567;BMP280;35472;50.514;30.448;2024-02-26T07:29:46;100397.84;;;9.62
49567;BMP280;35472;50.514;30.448;2024-02-26T07:32:12;100393.00;;;9.09
49567;BMP280;35472;50.514;30.448;2024-02-26T07:34:39;100403.47;;;8.70
49567;BMP280;35472;50.514;30.448;2024-02-26T07:37:07;100410.81;;;9.35
49567;BMP280;35472;50.514;30.448;2024-02-26T07:39:33;100391.19;;;8.69
49567;BMP280;35472;50.514;30.448;2024-02-26T07:41:58;100404.94;;;8.61
49567;BMP280;35472;50.514;30.448;2024-02-26T07:44:24;100415.28;;;8.62
49567;BMP280;35472;50.514;30.448;2024-02-26T07:46:51;100405.84;;;8.82
49567;BMP280;35472;50.514;30.448;2024-02-26T07:49:16;100412.53;;;9.06
49567;BMP280;35472;50.514;30.448;2024-02-26T07:51:42;100414.69;;;9.45
49567;BMP280;35472;50.514;30.448;2024-02-26T07:54:07;100404.16;;;9.15
49567;BMP280;35472;50.514;30.448;2024-02-26T07:56:33;100398.28;;;8.95
49567;BMP280;35472;50.514;30.448;2024-02-26T07:59:01;100403.19;;;8.35
49567;BMP280;35472;50.514;30.448;2024-02-26T08:01:26;100406.16;;;8.67
49567;BMP280;35472;50.514;30.448;2024-02-26T08:03:55;100410.44;;;8.82
49567;BMP280;35472;50.514;30.448;2024-02-26T08:06:23;100394.41;;;8.86
49567;BMP280;35472;50.514;30.448;2024-02-26T08:08:50;100384.41;;;9.58
49567;BMP280;35472;50.514;30.448;2024-02-26T08:11:16;100372.44;;;9.35
49567;BMP280;35472;50.514;30.448;2024-02-26T08:13:43;100377.06;;;9.55
49567;BMP280;35472;50.514;30.448;2024-02-26T08:16:08;100385.03;;;9.27
49567;BMP280;35472;50.514;30.448;2024-02-26T08:18:34;100374.69;;;8.64
49567;BMP280;35472;50.514;30.448;2024-02-26T08:20:59;100384.09;;;9.85
49567;BMP280;35472;50.514;30.448;2024-02-26T08:23:24;100389.78;;;9.58
49567;BMP280;35472;50.514;30.448;2024-02-26T08:25:51;100371.75;;;8.83
49567;BMP280;35472;50.514;30.448;2024-02-26T08:28:16;100385.00;;;9.20
49567;BMP280;35472;50.514;30.448;2024-02-26T08:30:43;100387.94;;;9.01
49567;BMP280;35472;50.514;30.448;2024-02-26T08:33:09;100380.72;;;9.08
49567;BMP280;35472;50.514;30.448;2024-02-26T08:35:35;100378.75;;;9.02
49567;BMP280;35472;50.514;30.448;2024-02-26T08:38:00;100380.19;;;9.68
49567;BMP280;35472;50.514;30.448;2024-02-26T08:40:26;100378.13;;;9.22
49567;BMP280;35472;50.514;30.448;2024-02-26T08:42:51;100375.94;;;8.80
49567;BMP280;35472;50.514;30.448;2024-02-26T08:45:16;100377.53;;;8.85
49567;BMP280;35472;50.514;30.448;2024-02-26T08:47:45;100382.06;;;8.77
49567;BMP280;35472;50.514;30.448;2024-02-26T08:50:10;100379.88;;;7.69
49567;BMP280;35472;50.514;30.448;2024-02-26T08:52:37;100378.91;;;8.17
49567;BMP280;35472;50.514;30.448;2024-02-26T08:55:03;100382.59;;;7.39
49567;BMP280;35472;50.514;30.448;2024-02-26T08:57:28;100394.28;;;6.52
49567;BMP280;35472;50.514;30.448;2024-02-26T08:59:54;100382.81;;;7.01
49567;BMP280;35472;50.514;30.448;2024-02-26T09:02:19;100383.66;;;6.82
49567;BMP280;35472;50.514;30.448;2024-02-26T09:04:47;100379.72;;;6.27
49567;BMP280;35472;50.514;30.448;2024-02-26T09:07:12;100388.63;;;7.06
49567;BMP280;35472;50.514;30.448;2024-02-26T09:09:37;100382.22;;;7.11
49567;BMP280;35472;50.514;30.448;2024-02-26T09:12:03;100383.88;;;7.49
49567;BMP280;35472;50.514;30.448;2024-02-26T09:14:29;100378.91;;;7.51
49567;BMP280;35472;50.514;30.448;2024-02-26T09:16:56;100382.22;;;7.70
49567;BMP280;35472;50.514;30.448;2024-02-26T09:19:23;100382.38;;;7.84
49567;BMP280;35472;50.514;30.448;2024-02-26T09:21:48;100381.53;;;7.80
49567;BMP280;35472;50.514;30.448;2024-02-26T09:24:15;100379.34;;;7.89
49567;BMP280;35472;50.514;30.448;2024-02-26T09:26:41;100374.91;;;7.67
49567;BMP280;35472;50.514;30.448;2024-02-26T09:29:10;100374.06;;;7.30
49567;BMP280;35472;50.514;30.448;2024-02-26T09:31:40;100387.41;;;7.26
49567;BMP280;35472;50.514;30.448;2024-02-26T09:34:07;100379.56;;;7.74
49567;BMP280;35472;50.514;30.448;2024-02-26T09:36:33;100381.25;;;7.85
49567;BMP280;35472;50.514;30.448;2024-02-26T09:38:59;100370.41;;;7.45
49567;BMP280;35472;50.514;30.448;2024-02-26T09:41:27;100371.69;;;7.88
49567;BMP280;35472;50.514;30.448;2024-02-26T09:43:56;100367.91;;;7.93
49567;BMP280;35472;50.514;30.448;2024-02-26T09:46:21;100373.78;;;8.05
49567;BMP280;35472;50.514;30.448;2024-02-26T09:48:49;100369.38;;;8.23
49567;BMP280;35472;50.514;30.448;2024-02-26T09:51:15;100365.50;;;8.21
49567;BMP280;35472;50.514;30.448;2024-02-26T09:53:43;100366.13;;;8.04
49567;BMP280;35472;50.514;30.448;2024-02-26T09:56:11;100373.19;;;8.22
49567;BMP280;35472;50.514;30.448;2024-02-26T09:58:37;100369.03;;;8.28
49567;BMP280;35472;50.514;30.448;2024-02-26T10:01:19;100364.56;;;8.03
49567;BMP280;35472;50.514;30.448;2024-02-26T10:03:52;100366.25;;;8.18
49567;BMP280;35472;50.514;30.448;2024-02-26T10:06:20;100360.50;;;8.19
49567;BMP280;35472;50.514;30.448;2024-02-26T10:08:46;100373.44;;;8.10
49567;BMP280;35472;50.514;30.448;2024-02-26T10:11:13;100356.88;;;8.01
49567;BMP280;35472;50.514;30.448;2024-02-26T10:13:38;100353.06;;;8.02
49567;BMP280;35472;50.514;30.448;2024-02-26T10:16:04;100354.94;;;8.39
49567;BMP280;35472;50.514;30.448;2024-02-26T10:18:45;100353.59;;;8.18
49567;BMP280;35472;50.514;30.448;2024-02-26T10:21:10;100356.31;;;8.66
49567;BMP280;35472;50.514;30.448;2024-02-26T10:23:36;100357.31;;;8.47
49567;BMP280;35472;50.514;30.448;2024-02-26T10:26:02;100347.31;;;8.44
49567;BMP280;35472;50.514;30.448;2024-02-26T10:28:29;100355.16;;;8.70
49567;BMP280;35472;50.514;30.448;2024-02-26T10:30:59;100356.72;;;8.71
49567;BMP280;35472;50.514;30.448;2024-02-26T10:33:25;100351.88;;;8.91
49567;BMP280;35472;50.514;30.448;2024-02-26T10:35:51;100354.28;;;9.10
49567;BMP280;35472;50.514;30.448;2024-02-26T10:38:18;100350.38;;;7.99
49567;BMP280;35472;50.514;30.448;2024-02-26T10:40:46;100351.31;;;8.17
49567;BMP280;35472;50.514;30.448;2024-02-26T10:43:12;100342.34;;;8.02
49567;BMP280;35472;50.514;30.448;2024-02-26T10:45:40;100349.47;;;7.87
49567;BMP280;35472;50.514;30.448;2024-02-26T10:48:16;100341.06;;;7.89
49567;BMP280;35472;50.514;30.448;2024-02-26T10:50:43;100346.28;;;7.75
49567;BMP280;35472;50.514;30.448;2024-02-26T10:53:22;100339.75;;;8.09
49567;BMP280;35472;50.514;30.448;2024-02-26T10:55:52;100340.94;;;8.63
49567;BMP280;35472;50.514;30.448;2024-02-26T10:58:20;100333.28;;;8.65
49567;BMP280;35472;50.514;30.448;2024-02-26T11:00:47;100339.47;;;8.72
49567;BMP280;35472;50.514;30.448;2024-02-26T11:03:15;100334.06;;;8.18
49567;BMP280;35472;50.514;30.448;2024-02-26T11:05:44;100338.72;;;8.24
49567;BMP280;35472;50.514;30.448;2024-02-26T11:08:11;100333.31;;;8.68
49567;BMP280;35472;50.514;30.448;2024-02-26T11:10:36;100326.53;;;8.85
49567;BMP280;35472;50.514;30.448;2024-02-26T11:13:05;100326.84;;;8.76
49567;BMP280;35472;50.514;30.448;2024-02-26T11:15:32;100332.25;;;8.83
49567;BMP280;35472;50.514;30.448;2024-02-26T11:17:59;100337.09;;;9.25
49567;BMP280;35472;50.514;30.448;2024-02-26T11:20:28;100333.56;;;9.18
49567;BMP280;35472;50.514;30.448;2024-02-26T11:22:53;100336.03;;;9.58
49567;BMP280;35472;50.514;30.448;2024-02-26T11:25:19;100343.59;;;9.28
49567;BMP280;35472;50.514;30.448;2024-02-26T11:27:49;100333.44;;;9.97
49567;BMP280;35472;50.514;30.448;2024-02-26T11:30:17;100332.16;;;9.56
49567;BMP280;35472;50.514;30.448;2024-02-26T11:32:44;100337.53;;;9.56
49567;BMP280;35472;50.514;30.448;2024-02-26T11:35:11;100330.66;;;9.58
49567;BMP280;35472;50.514;30.448;2024-02-26T11:37:40;100341.00;;;9.56
49567;BMP280;35472;50.514;30.448;2024-02-26T11:40:11;100331.88;;;10.00
49567;BMP280;35472;50.514;30.448;2024-02-26T11:42:43;100331.47;;;9.76
49567;BMP280;35472;50.514;30.448;2024-02-26T11:48:15;100348.81;;;10.04
49567;BMP280;35472;50.514;30.448;2024-02-26T11:50:50;100341.47;;;9.79
49567;BMP280;35472;50.514;30.448;2024-02-26T11:53:23;100355.34;;;10.13
49567;BMP280;35472;50.514;30.448;2024-02-26T11:58:45;100348.81;;;10.14
49567;BMP280;35472;50.514;30.448;2024-02-26T12:01:51;100342.63;;;10.07
49567;BMP280;35472;50.514;30.448;2024-02-26T12:04:23;100339.19;;;10.31
49567;BMP280;35472;50.514;30.448;2024-02-26T12:07:00;100346.50;;;10.41
49567;BMP280;35472;50.514;30.448;2024-02-26T12:09:39;100338.78;;;10.71
49567;BMP280;35472;50.514;30.448;2024-02-26T12:12:09;100340.94;;;11.08
49567;BMP280;35472;50.514;30.448;2024-02-26T12:14:52;100343.06;;;10.23
49567;BMP280;35472;50.514;30.448;2024-02-26T12:17:21;100339.91;;;10.56
49567;BMP280;35472;50.514;30.448;2024-02-26T12:19:47;100341.06;;;10.76
49567;BMP280;35472;50.514;30.448;2024-02-26T12:22:13;100339.16;;;10.59
49567;BMP280;35472;50.514;30.448;2024-02-26T12:24:39;100344.94;;;10.37
49567;BMP280;35472;50.514;30.448;2024-02-26T12:27:05;100354.56;;;10.41
49567;BMP280;35472;50.514;30.448;2024-02-26T12:29:31;100335.22;;;10.92
49567;BMP280;35472;50.514;30.448;2024-02-26T12:31:57;100344.47;;;10.91
49567;BMP280;35472;50.514;30.448;2024-02-26T12:34:23;100343.34;;;10.85
49567;BMP280;35472;50.514;30.448;2024-02-26T12:36:48;100355.63;;;10.82
49567;BMP280;35472;50.514;30.448;2024-02-26T12:39:14;100337.09;;;11.06
49567;BMP280;35472;50.514;30.448;2024-02-26T12:41:40;100349.09;;;10.91
49567;BMP280;35472;50.514;30.448;2024-02-26T12:44:08;100348.72;;;10.85
49567;BMP280;35472;50.514;30.448;2024-02-26T12:46:33;100356.44;;;10.76
49567;BMP280;35472;50.514;30.448;2024-02-26T12:48:59;100353.28;;;11.02
49567;BMP280;35472;50.514;30.448;2024-02-26T12:51:26;100352.63;;;10.63
49567;BMP280;35472;50.514;30.448;2024-02-26T12:53:55;100349.94;;;10.59
49567;BMP280;35472;50.514;30.448;2024-02-26T12:56:21;100351.41;;;10.85
49567;BMP280;35472;50.514;30.448;2024-02-26T12:58:48;100344.16;;;10.71
49567;BMP280;35472;50.514;30.448;2024-02-26T13:01:17;100358.34;;;10.82
49567;BMP280;35472;50.514;30.448;2024-02-26T13:03:46;100341.38;;;10.96
49567;BMP280;35472;50.514;30.448;2024-02-26T13:06:12;100340.94;;;11.15
49567;BMP280;35472;50.514;30.448;2024-02-26T13:08:38;100353.28;;;11.02
49567;BMP280;35472;50.514;30.448;2024-02-26T13:11:04;100341.72;;;11.05
49567;BMP280;35472;50.514;30.448;2024-02-26T13:13:29;100351.81;;;10.69
49567;BMP280;35472;50.514;30.448;2024-02-26T13:16:05;100336.09;;;10.64
49567;BMP280;35472;50.514;30.448;2024-02-26T13:18:35;100350.69;;;10.60
49567;BMP280;35472;50.514;30.448;2024-02-26T13:23:34;100342.63;;;10.42
49567;BMP280;35472;50.514;30.448;2024-02-26T13:26:00;100348.38;;;9.98
49567;BMP280;35472;50.514;30.448;2024-02-26T13:28:25;100338.75;;;10.61
49567;BMP280;35472;50.514;30.448;2024-02-26T13:30:57;100340.69;;;10.64
49567;BMP280;35472;50.514;30.448;2024-02-26T13:33:25;100350.34;;;10.54
49567;BMP280;35472;50.514;30.448;2024-02-26T13:35:51;100351.47;;;10.53
49567;BMP280;35472;50.514;30.448;2024-02-26T13:38:18;100369.56;;;10.10
49567;BMP280;35472;50.514;30.448;2024-02-26T13:40:43;100370.06;;;9.22
49567;BMP280;35472;50.514;30.448;2024-02-26T13:43:09;100357.97;;;9.81
49567;BMP280;35472;50.514;30.448;2024-02-26T13:45:35;100369.50;;;9.93
49567;BMP280;35472;50.514;30.448;2024-02-26T13:48:09;100361.88;;;10.23
49567;BMP280;35472;50.514;30.448;2024-02-26T13:50:36;100369.38;;;9.40
49567;BMP280;35472;50.514;30.448;2024-02-26T13:53:02;100368.25;;;9.55
49567;BMP280;35472;50.514;30.448;2024-02-26T13:55:28;100377.13;;;9.62
49567;BMP280;35472;50.514;30.448;2024-02-26T13:57:59;100386.44;;;10.11
49567;BMP280;35472;50.514;30.448;2024-02-26T14:00:27;100376.81;;;10.17